Time;durP1;ratioP1;P1;durP2;ratioP2;P2;SDS_P1;SDS_P2;PMS_P1;PMS_P2;Temp;Humidity;BMP_temperature;BMP_pressure;BME280_temperature;BME280_humidity;BME280_pressure;Samples;Min_cycle;Max_cycle;Signal;HPM_P1;HPM_P2
2022/09/13 00:00:48;;;;;;;14.52;12.77;;;17.20;80.20;;;;;;5073291;28;20503;-15
2022/09/13 00:03:14;;;;;;;12.25;8.93;;;17.20;80.50;;;;;;5073786;28;20012;-17
2022/09/13 00:05:40;;;;;;;10.27;7.65;;;17.20;80.90;;;;;;5073448;28;20545;-15
2022/09/13 00:08:07;;;;;;;12.38;9.05;;;17.20;80.50;;;;;;5073542;28;20449;-16
2022/09/13 00:10:38;;;;;;;12.82;10.30;;;17.20;80.50;;;;;;5073181;28;20048;-16
2022/09/13 00:13:07;;;;;;;11.48;9.48;;;17.20;80.60;;;;;;5073110;28;20064;-13
2022/09/13 00:15:34;;;;;;;11.57;9.52;;;17.20;80.80;;;;;;5073409;28;20111;-13
2022/09/13 00:18:03;;;;;;;10.90;9.63;;;17.20;81.00;;;;;;5073383;28;20035;-15
2022/09/13 00:20:29;;;;;;;14.88;12.57;;;17.20;80.90;;;;;;5072934;28;20545;-14
2022/09/13 00:22:54;;;;;;;15.80;12.50;;;17.10;80.90;;;;;;5072867;28;20029;-15
2022/09/13 00:25:20;;;;;;;10.25;8.35;;;17.10;81.40;;;;;;5073031;28;20163;-15
2022/09/13 00:27:46;;;;;;;15.75;12.45;;;17.00;81.00;;;;;;5072453;28;20032;-14
2022/09/13 00:30:12;;;;;;;13.57;11.32;;;17.10;80.90;;;;;;5072807;28;20056;-15
2022/09/13 00:32:39;;;;;;;14.60;9.45;;;17.00;81.10;;;;;;5073062;28;20025;-16
2022/09/13 00:35:05;;;;;;;13.05;9.90;;;17.00;80.90;;;;;;5073137;28;20032;-16
2022/09/13 00:37:35;;;;;;;10.95;8.95;;;17.00;80.90;;;;;;5073229;28;20044;-16
2022/09/13 00:40:02;;;;;;;10.50;8.60;;;17.10;80.90;;;;;;5073167;28;20020;-16
2022/09/13 00:42:31;;;;;;;15.70;11.00;;;17.00;80.80;;;;;;5073146;28;20074;-15
2022/09/13 00:45:09;;;;;;;13.60;10.85;;;16.90;80.80;;;;;;5072777;28;20019;-15
2022/09/13 00:47:56;;;;;;;18.05;14.25;;;17.00;80.70;;;;;;5073075;28;20101;-15
2022/09/13 00:50:39;;;;;;;16.65;13.23;;;16.90;80.80;;;;;;5072859;28;20103;-15
2022/09/13 00:53:12;;;;;;;19.35;14.43;;;16.90;81.10;;;;;;5072583;28;20021;-15
2022/09/13 00:55:49;;;;;;;10.88;9.23;;;16.90;81.20;;;;;;5073083;28;20101;-15
2022/09/13 00:58:32;;;;;;;9.82;7.50;;;16.90;81.30;;;;;;5072777;28;20116;-15
2022/09/13 01:01:01;;;;;;;7.85;6.50;;;16.90;81.20;;;;;;5072771;28;20136;-14
2022/09/13 01:03:30;;;;;;;10.10;6.63;;;16.90;81.10;;;;;;5072977;28;20017;-15
2022/09/13 01:06:08;;;;;;;11.70;8.80;;;16.90;81.00;;;;;;5072802;28;20063;-16
2022/09/13 01:08:37;;;;;;;9.88;8.27;;;16.90;81.00;;;;;;5072818;28;20024;-16
2022/09/13 01:11:06;;;;;;;10.20;8.85;;;16.90;80.90;;;;;;5072365;28;20024;-16
2022/09/13 01:13:35;;;;;;;16.58;12.27;;;16.80;80.90;;;;;;5072843;28;20025;-15
2022/09/13 01:16:01;;;;;;;12.65;10.85;;;16.80;81.10;;;;;;5072736;28;20027;-15
2022/09/13 01:18:27;;;;;;;11.18;9.60;;;16.70;81.10;;;;;;5072718;28;20041;-14
2022/09/13 01:21:11;;;;;;;11.50;8.95;;;16.70;81.10;;;;;;5072298;28;20025;-15
2022/09/13 01:24:15;;;;;;;9.77;7.95;;;16.60;81.20;;;;;;5072511;28;20028;-15
2022/09/13 01:27:00;;;;;;;;;;;16.60;81.40;;;;;;5011109;28;20025;-16
2022/09/13 01:30:02;;;;;;;11.75;9.73;;;16.60;82.20;;;;;;5010947;28;19921;-15
2022/09/13 01:32:40;;;;;;;15.27;9.70;;;16.50;81.70;;;;;;5010725;28;20041;-15
2022/09/13 01:35:33;;;;;;;19.67;15.25;;;16.40;81.40;;;;;;5010447;28;20513;-15
2022/09/13 01:38:20;;;;;;;17.88;15.15;;;16.40;81.50;;;;;;5010753;28;20038;-15
2022/09/13 01:41:12;;;;;;;17.02;13.88;;;16.40;81.60;;;;;;5013457;28;20059;-15
2022/09/13 01:43:41;;;;;;;17.98;13.77;;;16.40;81.70;;;;;;5014581;28;20092;-15
2022/09/13 01:46:22;;;;;;;20.48;17.48;;;16.40;81.70;;;;;;5013962;28;20561;-15
2022/09/13 01:49:26;;;;;;;19.67;16.80;;;16.40;82.00;;;;;;5013868;28;20152;-15
2022/09/13 01:52:15;;;;;;;14.18;10.32;;;16.30;82.50;;;;;;4945564;28;20035;-16
2022/09/13 01:54:59;;;;;;;10.77;8.88;;;16.30;82.40;;;;;;5013926;28;20033;-16
2022/09/13 01:57:34;;;;;;;12.15;9.20;;;16.30;82.30;;;;;;5014033;28;20038;-16
2022/09/13 02:00:07;;;;;;;9.85;8.82;;;16.30;82.20;;;;;;5013824;28;20026;-15
2022/09/13 02:02:46;;;;;;;10.60;8.38;;;16.30;82.00;;;;;;5034890;28;20131;-17
2022/09/13 02:05:22;;;;;;;12.40;9.13;;;16.30;82.00;;;;;;5075180;28;20392;-16
2022/09/13 02:08:33;;;;;;;11.93;9.45;;;16.30;82.00;;;;;;5075658;28;20023;-15
2022/09/13 02:11:10;;;;;;;7.90;6.85;;;16.20;82.10;;;;;;5013377;28;20054;-17
2022/09/13 02:13:46;;;;;;;13.52;10.18;;;16.20;81.90;;;;;;5013801;28;20390;-16
2022/09/13 02:16:25;;;;;;;12.10;9.68;;;16.20;82.00;;;;;;5013520;28;20058;-15
2022/09/13 02:18:57;;;;;;;14.48;10.30;;;16.20;82.10;;;;;;5013257;28;20026;-16
2022/09/13 02:21:31;;;;;;;12.52;9.93;;;16.10;82.30;;;;;;5013314;28;20164;-15
2022/09/13 02:24:00;;;;;;;;;;;16.10;82.20;;;;;;5013757;28;20513;-15
2022/09/13 02:26:29;;;;;;;11.00;8.23;;;16.00;82.70;;;;;;5013302;28;19956;-16
2022/09/13 02:28:57;;;;;;;9.88;8.27;;;16.00;82.40;;;;;;5012951;28;20045;-17
2022/09/13 02:31:35;;;;;;;12.77;8.98;;;16.00;82.00;;;;;;5013101;28;20026;-16
2022/09/13 02:34:30;;;;;;;12.43;9.05;;;16.00;82.00;;;;;;5013398;28;20108;-15
2022/09/13 02:36:58;;;;;;;10.35;9.05;;;16.00;82.00;;;;;;5005204;28;20034;-15
2022/09/13 02:39:28;;;;;;;12.30;10.52;;;16.00;82.20;;;;;;5013069;28;20029;-15
2022/09/13 02:42:05;;;;;;;9.35;7.55;;;15.90;83.00;;;;;;5039294;28;20029;-15
2022/09/13 02:44:43;;;;;;;9.98;8.32;;;15.90;82.40;;;;;;5074863;28;20499;-16
2022/09/13 02:47:31;;;;;;;17.30;14.23;;;15.90;82.40;;;;;;5074785;28;20029;-15
2022/09/13 02:50:04;;;;;;;19.75;15.85;;;15.80;82.40;;;;;;5074556;28;20115;-17
2022/09/13 02:52:49;;;;;;;11.82;9.93;;;15.80;82.40;;;;;;5074467;28;20488;-15
2022/09/13 02:55:28;;;;;;;9.95;8.20;;;15.80;82.60;;;;;;5074794;28;20063;-15
2022/09/13 02:58:03;;;;;;;11.70;9.82;;;15.70;82.40;;;;;;5074470;28;20024;-15
2022/09/13 03:00:30;;;;;;;10.43;8.88;;;15.80;82.70;;;;;;5074329;28;20025;-16
2022/09/13 03:02:59;;;;;;;15.30;11.18;;;15.70;82.40;;;;;;5074090;28;20021;-15
2022/09/13 03:05:24;;;;;;;15.73;12.07;;;15.80;82.60;;;;;;5072886;28;20427;-16
2022/09/13 03:07:52;;;;;;;23.60;19.55;;;15.70;82.60;;;;;;5074461;28;20484;-15
2022/09/13 03:10:17;;;;;;;12.57;10.02;;;15.70;82.80;;;;;;5074439;28;20032;-16
2022/09/13 03:13:21;;;;;;;21.52;15.75;;;15.70;83.00;;;;;;5074302;28;20376;-15
2022/09/13 03:16:13;;;;;;;10.60;9.48;;;15.70;83.00;;;;;;5032075;28;20030;-16
2022/09/13 03:18:51;;;;;;;13.02;10.90;;;15.60;83.00;;;;;;5031959;28;20033;-15
2022/09/13 03:21:36;;;;;;;11.85;9.52;;;15.70;83.30;;;;;;5031942;28;20092;-15
2022/09/13 03:24:36;;;;;;;10.18;8.75;;;15.60;83.10;;;;;;5032033;28;20025;-15
2022/09/13 03:27:40;;;;;;;10.32;8.65;;;15.60;83.00;;;;;;5031877;28;20025;-15
2022/09/13 03:30:10;;;;;;;13.25;10.90;;;15.60;83.00;;;;;;4972899;28;20165;-16
2022/09/13 03:33:02;;;;;;;12.90;10.20;;;15.60;83.00;;;;;;4973063;28;20542;-17
2022/09/13 03:35:43;;;;;;;8.85;7.10;;;15.60;82.90;;;;;;4972916;28;20472;-16
2022/09/13 03:38:14;;;;;;;9.00;7.55;;;15.60;82.80;;;;;;4972990;28;20031;-17
2022/09/13 03:40:48;;;;;;;10.82;8.75;;;15.50;82.80;;;;;;4973077;28;20069;-14
2022/09/13 03:43:22;;;;;;;8.82;7.30;;;15.60;83.00;;;;;;4972894;28;20041;-16
2022/09/13 03:45:58;;;;;;;9.20;7.43;;;15.50;82.80;;;;;;4972920;28;20027;-16
2022/09/13 03:48:26;;;;;;;12.98;9.95;;;15.50;82.70;;;;;;4972820;28;20034;-15
2022/09/13 03:50:53;;;;;;;9.48;8.18;;;15.50;82.70;;;;;;5009895;28;20551;-16
2022/09/13 03:53:24;;;;;;;10.85;8.70;;;15.60;82.60;;;;;;4995278;28;20033;-15
2022/09/13 03:55:51;;;;;;;12.32;9.95;;;15.50;82.70;;;;;;5011668;28;20105;-16
2022/09/13 03:58:19;;;;;;;12.88;11.40;;;15.50;82.90;;;;;;4995332;28;20033;-15
2022/09/13 04:00:46;;;;;;;13.45;10.13;;;15.50;83.00;;;;;;5011839;28;20030;-16
2022/09/13 04:03:13;;;;;;;10.20;8.75;;;15.50;83.00;;;;;;4994096;28;20578;-15
2022/09/13 04:05:39;;;;;;;12.75;8.93;;;15.40;83.10;;;;;;5004526;28;20067;-15
2022/09/13 04:08:07;;;;;;;17.75;15.65;;;15.40;83.20;;;;;;5073267;28;20028;-17
2022/09/13 04:10:35;;;;;;;11.02;9.25;;;15.40;83.20;;;;;;5073332;28;20016;-15
2022/09/13 04:13:01;;;;;;;14.27;11.52;;;15.40;83.20;;;;;;5073321;28;20024;-16
2022/09/13 04:15:29;;;;;;;14.43;11.38;;;15.40;83.40;;;;;;5073177;28;20181;-16
2022/09/13 04:17:56;;;;;;;11.25;8.90;;;15.40;83.40;;;;;;5073434;28;20029;-15
2022/09/13 04:20:23;;;;;;;9.32;7.45;;;15.40;83.30;;;;;;5072990;28;20111;-16
2022/09/13 04:22:54;;;;;;;13.52;10.73;;;15.40;83.10;;;;;;5072994;28;20032;-16
2022/09/13 04:25:21;;;;;;;10.27;8.02;;;15.40;83.30;;;;;;5073495;28;20430;-18
2022/09/13 04:27:52;;;;;;;14.85;11.00;;;15.40;83.40;;;;;;5072939;28;20500;-15
2022/09/13 04:30:18;;;;;;;16.75;13.27;;;15.40;83.40;;;;;;5072874;28;20052;-16
2022/09/13 04:32:44;;;;;;;14.38;11.45;;;15.50;83.50;;;;;;5073073;28;20036;-16
2022/09/13 04:35:11;;;;;;;17.48;13.02;;;15.50;83.70;;;;;;5072800;28;20063;-16
2022/09/13 04:37:37;;;;;;;12.02;9.05;;;15.50;83.60;;;;;;5071607;28;20480;-16
2022/09/13 04:40:06;;;;;;;14.40;10.52;;;15.50;83.70;;;;;;5072893;28;20369;-16
2022/09/13 04:42:32;;;;;;;12.35;9.43;;;15.50;83.70;;;;;;5073173;28;20122;-16
2022/09/13 04:44:58;;;;;;;11.30;9.55;;;15.50;83.60;;;;;;5072729;28;20029;-15
2022/09/13 04:47:24;;;;;;;9.95;8.35;;;15.60;83.70;;;;;;5072801;28;20051;-14
2022/09/13 04:49:50;;;;;;;11.27;9.95;;;15.60;83.80;;;;;;5072801;28;20042;-16
2022/09/13 04:52:16;;;;;;;10.25;8.48;;;15.70;83.70;;;;;;5072699;28;20120;-15
2022/09/13 04:54:42;;;;;;;10.20;7.07;;;15.80;83.70;;;;;;5073025;28;20056;-16
2022/09/13 04:57:08;;;;;;;19.75;15.02;;;15.90;83.40;;;;;;5072892;28;20154;-16
2022/09/13 04:59:34;;;;;;;12.90;11.52;;;15.90;83.50;;;;;;5072960;28;20435;-16
2022/09/13 05:02:00;;;;;;;11.85;9.70;;;15.90;83.70;;;;;;5072988;28;20028;-15
2022/09/13 05:04:26;;;;;;;11.60;9.02;;;16.00;83.60;;;;;;5072729;28;20052;-15
2022/09/13 05:06:52;;;;;;;13.07;11.38;;;16.10;83.60;;;;;;5072582;28;20155;-15
2022/09/13 05:09:18;;;;;;;16.27;12.40;;;16.20;84.00;;;;;;5072611;28;20033;-15
2022/09/13 05:11:44;;;;;;;13.63;10.25;;;16.20;84.00;;;;;;5072556;28;20110;-15
2022/09/13 05:14:11;;;;;;;9.05;8.05;;;16.30;83.80;;;;;;5074635;28;20505;-15
2022/09/13 05:16:37;;;;;;;12.38;10.02;;;16.30;83.80;;;;;;5076660;28;20031;-15
2022/09/13 05:19:03;;;;;;;14.90;11.27;;;16.40;84.00;;;;;;5076438;28;20051;-16
2022/09/13 05:21:30;;;;;;;14.88;9.95;;;16.40;83.80;;;;;;5076413;28;20074;-16
2022/09/13 05:23:57;;;;;;;10.98;9.13;;;16.40;83.70;;;;;;5076217;28;20031;-16
2022/09/13 05:26:26;;;;;;;14.07;10.60;;;16.50;83.60;;;;;;5076248;28;20035;-17
2022/09/13 05:28:52;;;;;;;14.23;9.32;;;16.60;83.40;;;;;;5075923;28;20070;-16
2022/09/13 05:31:21;;;;;;;14.07;11.98;;;16.60;83.40;;;;;;5076231;28;20547;-16
2022/09/13 05:33:53;;;;;;;13.77;10.80;;;16.70;83.50;;;;;;5076364;28;20031;-16
2022/09/13 05:36:19;;;;;;;11.13;8.52;;;16.80;83.30;;;;;;5075940;28;20052;-15
2022/09/13 05:38:45;;;;;;;10.15;8.02;;;16.80;83.20;;;;;;5075930;28;20035;-16
2022/09/13 05:41:11;;;;;;;11.55;9.73;;;16.90;83.10;;;;;;5075823;28;20442;-16
2022/09/13 05:43:37;;;;;;;9.25;7.55;;;16.90;83.40;;;;;;5076285;28;20047;-16
2022/09/13 05:46:15;;;;;;;16.17;12.23;;;17.00;83.20;;;;;;5076111;28;20059;-17
2022/09/13 05:48:41;;;;;;;15.65;10.88;;;17.00;82.80;;;;;;5075932;28;20027;-16
2022/09/13 05:51:19;;;;;;;12.68;9.27;;;17.10;82.90;;;;;;5074201;28;20231;-16
2022/09/13 05:53:47;;;;;;;11.80;9.77;;;17.10;83.10;;;;;;5074518;28;20029;-15
2022/09/13 05:56:16;;;;;;;9.93;7.57;;;17.20;83.00;;;;;;5075712;28;20028;-16
2022/09/13 05:58:44;;;;;;;12.25;8.35;;;17.20;82.70;;;;;;5075563;28;20029;-15
2022/09/13 06:01:12;;;;;;;11.13;7.75;;;17.30;82.50;;;;;;5075544;28;20033;-15
2022/09/13 06:03:38;;;;;;;11.93;8.52;;;17.30;82.40;;;;;;5075663;28;20077;-16
2022/09/13 06:06:05;;;;;;;13.25;10.98;;;17.40;82.40;;;;;;5075570;28;20361;-15
2022/09/13 06:08:32;;;;;;;13.48;11.80;;;17.40;82.30;;;;;;5075432;28;20021;-16
2022/09/13 06:11:04;;;;;;;10.82;8.68;;;17.50;82.30;;;;;;5075386;28;20029;-16
2022/09/13 06:13:30;;;;;;;13.75;10.10;;;17.60;82.30;;;;;;5075609;28;20040;-17
2022/09/13 06:15:58;;;;;;;16.92;11.65;;;17.70;82.10;;;;;;5075291;28;20024;-16
2022/09/13 06:18:24;;;;;;;14.05;9.85;;;17.80;82.00;;;;;;5075169;28;20029;-15
2022/09/13 06:20:58;;;;;;;17.10;13.07;;;17.90;81.80;;;;;;5075219;28;20040;-14
2022/09/13 06:23:24;;;;;;;17.60;12.40;;;18.00;81.60;;;;;;5075201;28;20442;-15
2022/09/13 06:26:02;;;;;;;12.65;8.95;;;18.20;81.70;;;;;;5074424;28;20059;-14
2022/09/13 06:28:28;;;;;;;14.18;8.63;;;18.30;81.50;;;;;;5075018;28;20043;-15
2022/09/13 06:31:06;;;;;;;14.13;10.07;;;18.40;81.70;;;;;;5074769;28;20017;-16
2022/09/13 06:33:32;;;;;;;11.25;7.82;;;18.40;81.70;;;;;;5074864;28;20112;-15
2022/09/13 06:36:08;;;;;;;15.98;8.60;;;18.60;81.40;;;;;;5075493;28;20028;-15
2022/09/13 06:38:33;;;;;;;10.77;6.53;;;18.60;81.00;;;;;;5073586;28;20028;-15
2022/09/13 06:41:05;;;;;;;11.90;8.73;;;18.70;80.90;;;;;;5074868;28;20034;-17
2022/09/13 06:43:32;;;;;;;9.10;6.38;;;18.70;80.90;;;;;;5074688;28;20442;-15
2022/09/13 06:46:03;;;;;;;14.52;10.25;;;18.90;80.70;;;;;;5074886;28;20029;-17
2022/09/13 06:48:35;;;;;;;16.58;10.73;;;19.00;80.90;;;;;;5075012;28;20052;-15
2022/09/13 06:51:03;;;;;;;14.48;10.15;;;19.20;81.40;;;;;;5074366;28;20020;-15
2022/09/13 06:53:30;;;;;;;10.55;6.82;;;19.40;80.90;;;;;;5074756;28;20033;-15
2022/09/13 06:56:08;;;;;;;10.57;8.80;;;19.60;80.50;;;;;;5074948;28;20048;-15
2022/09/13 06:58:35;;;;;;;10.82;8.40;;;19.90;79.60;;;;;;5074442;28;20033;-15
2022/09/13 07:01:14;;;;;;;13.57;8.50;;;20.00;79.50;;;;;;5074239;28;20028;-15
2022/09/13 07:04:02;;;;;;;9.68;7.07;;;20.40;79.00;;;;;;5075227;28;20038;-16
2022/09/13 07:06:30;;;;;;;13.57;8.15;;;20.60;77.70;;;;;;5074120;28;20439;-15
2022/09/13 07:08:59;;;;;;;10.15;6.93;;;20.90;77.40;;;;;;5074375;28;20060;-15
2022/09/13 07:11:29;;;;;;;11.45;7.30;;;21.20;76.80;;;;;;5074395;28;20373;-16
2022/09/13 07:13:57;;;;;;;11.25;6.82;;;21.50;75.40;;;;;;5074448;28;20086;-15
2022/09/13 07:16:28;;;;;;;9.93;6.55;;;21.80;75.10;;;;;;5074046;28;20029;-15
2022/09/13 07:18:57;;;;;;;9.05;5.53;;;22.00;74.60;;;;;;5074142;28;20033;-15
2022/09/13 07:21:24;;;;;;;11.68;6.18;;;22.30;73.50;;;;;;5074211;28;20027;-14
2022/09/13 07:23:52;;;;;;;9.85;5.40;;;22.60;72.50;;;;;;5074160;28;20029;-15
2022/09/13 07:26:18;;;;;;;7.88;5.60;;;22.80;71.80;;;;;;5073938;28;20020;-14
2022/09/13 07:28:47;;;;;;;9.38;5.40;;;22.90;70.50;;;;;;5073537;28;20072;-14
2022/09/13 07:31:17;;;;;;;10.90;6.00;;;23.20;70.10;;;;;;5074090;28;20024;-16
2022/09/13 07:33:44;;;;;;;7.88;5.25;;;23.30;70.20;;;;;;5073598;28;20407;-15
2022/09/13 07:36:11;;;;;;;9.43;5.15;;;23.50;69.70;;;;;;5073476;28;20039;-15
2022/09/13 07:38:40;;;;;;;8.60;5.75;;;23.70;69.60;;;;;;5073634;28;20028;-14
2022/09/13 07:41:09;;;;;;;8.27;5.45;;;23.80;68.00;;;;;;5072409;28;20391;-15
2022/09/13 07:43:35;;;;;;;8.90;5.88;;;23.80;67.40;;;;;;5073856;28;20013;-14
2022/09/13 07:46:07;;;;;;;7.20;5.53;;;23.90;67.50;;;;;;5160488;22;20473;-17
2022/09/13 07:48:35;;;;;;;8.00;5.03;;;23.90;67.10;;;;;;5073620;28;20031;-15
2022/09/13 07:51:09;;;;;;;6.65;4.63;;;24.00;67.90;;;;;;5073598;28;20036;-15
2022/09/13 07:53:37;;;;;;;6.47;4.32;;;24.20;67.90;;;;;;5074053;28;20028;-14
2022/09/13 07:56:07;;;;;;;6.72;4.70;;;24.30;67.50;;;;;;5073814;28;20032;-15
2022/09/13 07:58:35;;;;;;;5.57;4.53;;;24.50;66.80;;;;;;5073561;28;20017;-15
2022/09/13 08:01:07;;;;;;;7.63;4.95;;;24.70;65.80;;;;;;5073335;28;20032;-14
2022/09/13 08:03:34;;;;;;;9.13;5.40;;;24.90;65.00;;;;;;5073594;28;20016;-14
2022/09/13 08:06:01;;;;;;;8.05;4.70;;;25.20;64.20;;;;;;5073608;28;20035;-15
2022/09/13 08:08:28;;;;;;;5.50;4.05;;;25.30;64.00;;;;;;5073600;28;20054;-16
2022/09/13 08:10:54;;;;;;;5.35;3.42;;;25.50;63.50;;;;;;5073107;28;20025;-15
2022/09/13 08:13:19;;;;;;;8.32;4.28;;;25.70;63.30;;;;;;5073113;28;20032;-15
2022/09/13 08:15:45;;;;;;;7.63;4.68;;;25.90;62.60;;;;;;5073229;28;20028;-14
2022/09/13 08:18:15;;;;;;;6.57;4.32;;;26.10;61.70;;;;;;5073660;28;20039;-15
2022/09/13 08:20:41;;;;;;;8.57;4.88;;;26.10;61.90;;;;;;5072956;28;20025;-16
2022/09/13 08:23:09;;;;;;;5.38;3.75;;;26.20;61.50;;;;;;5073173;28;20028;-14
2022/09/13 08:25:37;;;;;;;7.38;4.47;;;26.30;61.40;;;;;;5073326;28;20048;-15
2022/09/13 08:28:13;;;;;;;6.18;3.42;;;26.40;61.10;;;;;;5073766;28;20032;-16
2022/09/13 08:30:41;;;;;;;6.60;4.57;;;26.60;61.20;;;;;;5073087;28;20017;-14
2022/09/13 08:33:07;;;;;;;6.85;4.80;;;26.80;59.90;;;;;;5072861;28;20052;-14
2022/09/13 08:35:33;;;;;;;6.50;4.18;;;27.00;59.90;;;;;;5072999;28;20067;-14
2022/09/13 08:37:59;;;;;;;6.97;4.57;;;27.30;59.50;;;;;;5073215;28;20086;-13
2022/09/13 08:40:30;;;;;;;7.30;4.22;;;27.50;59.30;;;;;;5088529;28;20033;-13
2022/09/13 08:43:19;;;;;;;5.47;3.60;;;27.70;58.90;;;;;;5072709;28;20029;-14
2022/09/13 08:46:01;;;;;;;4.60;3.60;;;27.80;55.40;;;;;;5072771;28;20139;-15
2022/09/13 08:48:35;;;;;;;5.65;4.25;;;27.90;57.30;;;;;;5089406;28;20032;-15
2022/09/13 08:51:06;;;;;;;4.63;3.13;;;28.10;55.40;;;;;;5076782;28;20472;-15
2022/09/13 08:53:44;;;;;;;9.00;4.85;;;28.20;56.30;;;;;;5077142;28;20036;-15
2022/09/13 08:56:11;;;;;;;5.60;4.13;;;28.40;54.70;;;;;;5077211;28;20028;-15
2022/09/13 08:58:52;;;;;;;4.93;3.40;;;28.60;55.30;;;;;;5077074;28;20024;-16
2022/09/13 09:02:04;;;;;;;5.13;2.97;;;28.90;54.60;;;;;;5077375;28;20035;-15
2022/09/13 09:04:53;;;;;;;6.43;4.30;;;29.10;53.80;;;;;;5077032;28;20098;-16
2022/09/13 09:07:25;;;;;;;4.90;3.75;;;28.90;51.90;;;;;;5076926;28;20077;-15
2022/09/13 09:09:55;;;;;;;6.45;4.00;;;28.90;54.20;;;;;;5076587;28;20020;-16
2022/09/13 09:12:27;;;;;;;4.95;2.60;;;28.90;54.00;;;;;;5076496;28;20037;-15
2022/09/13 09:15:05;;;;;;;4.07;2.70;;;29.10;54.10;;;;;;5076508;28;20028;-14
2022/09/13 09:18:09;;;;;;;5.35;2.95;;;29.30;53.10;;;;;;5076873;28;20396;-15
2022/09/13 09:20:45;;;;;;;3.92;2.20;;;29.60;51.30;;;;;;5074996;28;20364;-14
2022/09/13 09:23:25;;;;;;;2.53;2.17;;;29.80;52.10;;;;;;5091832;28;20175;-15
2022/09/13 09:26:13;;;;;;;3.95;3.05;;;30.10;51.90;;;;;;5076517;28;20021;-14
2022/09/13 09:28:39;;;;;;;2.58;2.30;;;30.20;51.70;;;;;;5163927;22;20058;-20
2022/09/13 09:31:43;;;;;;;2.80;2.20;;;30.40;51.50;;;;;;5116626;28;20486;-19
2022/09/13 09:34:31;;;;;;;6.07;2.90;;;30.70;50.90;;;;;;5117219;28;20111;-20
2022/09/13 09:37:00;;;;;;;4.00;2.35;;;30.90;50.10;;;;;;5116812;27;20110;-17
2022/09/13 09:39:32;;;;;;;2.80;2.08;;;31.00;48.80;;;;;;5116676;28;20027;-19
2022/09/13 09:41:59;;;;;;;2.00;1.70;;;31.20;48.20;;;;;;5116954;28;20024;-16
2022/09/13 09:44:32;;;;;;;2.88;1.88;;;31.40;48.00;;;;;;5116741;28;20027;-17
2022/09/13 09:47:16;;;;;;;2.42;2.00;;;31.70;46.00;;;;;;5116645;27;20106;-18
2022/09/13 09:50:08;;;;;;;2.08;1.70;;;31.90;45.40;;;;;;5116487;28;20061;-18
2022/09/13 09:52:43;;;;;;;3.88;2.30;;;32.10;45.50;;;;;;5116341;28;20034;-18
2022/09/13 09:55:19;;;;;;;2.40;2.20;;;32.30;44.20;;;;;;5116174;28;20425;-17
2022/09/13 09:57:52;;;;;;;4.18;2.30;;;32.40;44.00;;;;;;5116289;28;20038;-17
2022/09/13 10:00:19;;;;;;;3.38;2.70;;;32.50;43.90;;;;;;5114956;28;20036;-18
2022/09/13 10:02:48;;;;;;;4.57;2.70;;;32.50;43.70;;;;;;5116309;28;20023;-17
2022/09/13 10:05:19;;;;;;;3.35;2.13;;;32.30;44.10;;;;;;5116437;28;20050;-18
2022/09/13 10:07:56;;;;;;;2.17;1.98;;;32.00;44.80;;;;;;5116408;28;20027;-18
2022/09/13 10:10:51;;;;;;;2.60;2.10;;;31.90;45.40;;;;;;5116395;28;20019;-17
2022/09/13 10:13:23;;;;;;;3.13;1.90;;;32.20;45.10;;;;;;5105009;28;20256;-17
2022/09/13 10:16:02;;;;;;;1.60;1.40;;;32.40;44.20;;;;;;5116298;28;20114;-17
2022/09/13 10:18:33;;;;;;;3.28;2.10;;;32.70;44.40;;;;;;5115898;28;20106;-17
2022/09/13 10:21:19;;;;;;;3.10;2.08;;;32.90;43.70;;;;;;5115704;28;20024;-18
2022/09/13 10:23:49;;;;;;;2.17;1.90;;;33.10;43.40;;;;;;5116305;28;20027;-18
2022/09/13 10:26:27;;;;;;;2.72;2.00;;;33.50;41.40;;;;;;5115832;28;20034;-19
2022/09/13 10:29:07;;;;;;;5.32;2.10;;;33.70;39.50;;;;;;5115366;28;20059;-17
2022/09/13 10:31:37;;;;;;;4.40;1.98;;;33.90;40.10;;;;;;5114386;28;20387;-17
2022/09/13 10:34:11;;;;;;;3.05;2.08;;;33.90;40.30;;;;;;5115828;28;20391;-17
2022/09/13 10:36:42;;;;;;;4.75;2.65;;;33.70;39.70;;;;;;5115679;28;20030;-17
2022/09/13 10:39:29;;;;;;;2.38;2.10;;;33.30;40.10;;;;;;5115615;28;20051;-17
2022/09/13 10:42:01;;;;;;;2.80;2.13;;;32.70;41.10;;;;;;5115808;27;20554;-17
2022/09/13 10:44:50;;;;;;;4.97;2.17;;;32.60;42.50;;;;;;5115673;28;20020;-18
2022/09/13 10:47:23;;;;;;;2.53;1.75;;;32.80;42.20;;;;;;5115356;28;20122;-16
2022/09/13 10:49:56;;;;;;;3.13;2.00;;;33.30;41.90;;;;;;5115688;28;20051;-18
2022/09/13 10:52:27;;;;;;;3.95;2.00;;;33.70;40.70;;;;;;5115318;27;20109;-18
2022/09/13 10:54:54;;;;;;;3.45;2.47;;;34.20;38.60;;;;;;5115275;28;20036;-18
2022/09/13 10:57:36;;;;;;;2.03;1.77;;;34.60;37.30;;;;;;5115162;28;20031;-17
2022/09/13 11:00:09;;;;;;;2.63;1.90;;;34.80;37.10;;;;;;5115026;28;20020;-17
2022/09/13 11:02:43;;;;;;;2.05;1.40;;;35.00;37.20;;;;;;5115294;28;20028;-19
2022/09/13 11:05:18;;;;;;;4.85;1.80;;;35.30;37.80;;;;;;5114815;28;20032;-17
2022/09/13 11:08:11;;;;;;;2.42;1.80;;;35.60;37.60;;;;;;5115254;28;20023;-16
2022/09/13 11:11:07;;;;;;;2.80;1.67;;;35.70;35.70;;;;;;5114951;28;20031;-18
2022/09/13 11:13:52;;;;;;;4.65;2.10;;;35.80;35.40;;;;;;5114747;28;20123;-17
2022/09/13 11:16:24;;;;;;;3.45;1.92;;;35.80;35.20;;;;;;5114833;27;20494;-18
2022/09/13 11:19:50;;;;;;;3.90;1.80;;;35.40;36.20;;;;;;5114507;28;20126;-17
2022/09/13 11:22:31;;;;;;;7.10;1.88;;;34.60;36.30;;;;;;5031890;28;20026;-17
2022/09/13 11:25:13;;;;;;;1.90;1.52;;;34.10;37.50;;;;;;5105757;28;20051;-18
2022/09/13 11:28:13;;;;;;;2.00;1.58;;;33.90;38.50;;;;;;5114983;28;20068;-17
2022/09/13 11:31:18;;;;;;;3.42;2.20;;;34.00;38.70;;;;;;5114881;28;20035;-17
2022/09/13 11:34:02;;;;;;;2.60;2.00;;;34.00;38.40;;;;;;5114447;28;20089;-17
2022/09/13 11:37:18;;;;;;;2.25;1.50;;;34.10;38.30;;;;;;5114442;28;20490;-17
2022/09/13 11:40:12;;;;;;;3.15;1.70;;;34.30;38.30;;;;;;5133273;22;20543;-15
2022/09/13 11:42:59;;;;;;;2.47;1.80;;;34.90;36.80;;;;;;5114351;28;20063;-15
2022/09/13 11:45:50;;;;;;;2.85;1.80;;;35.60;37.30;;;;;;5114284;28;20062;-16
2022/09/13 11:48:43;;;;;;;3.13;1.85;;;36.30;35.90;;;;;;5114202;28;20106;-14
2022/09/13 11:51:08;;;;;;;;;;;36.80;34.10;;;;;;5114711;28;20028;-15
2022/09/13 11:54:02;;;;;;;2.60;2.20;;;37.00;33.00;;;;;;5114441;28;20385;-14
2022/09/13 11:57:00;;;;;;;1.90;1.80;;;37.30;34.00;;;;;;5114304;28;20028;-15
2022/09/13 11:59:36;;;;;;;2.92;2.00;;;37.40;33.90;;;;;;5113879;28;20497;-15
2022/09/13 12:02:18;;;;;;;5.82;2.90;;;37.80;34.00;;;;;;5114313;28;20050;-15
2022/09/13 12:05:00;;;;;;;2.50;1.48;;;38.10;32.00;;;;;;5114121;28;20084;-15
2022/09/13 12:07:41;;;;;;;2.17;1.98;;;38.00;33.00;;;;;;5113938;28;20026;-15
2022/09/13 12:10:24;;;;;;;2.85;1.92;;;38.00;33.50;;;;;;5113739;28;20027;-15
2022/09/13 12:12:51;;;;;;;1.88;1.60;;;37.80;33.70;;;;;;5113941;28;20031;-18
2022/09/13 12:15:40;;;;;;;3.75;2.45;;;37.60;34.50;;;;;;5113785;28;20024;-15
2022/09/13 12:18:47;;;;;;;2.20;1.83;;;37.90;34.20;;;;;;5113741;28;20026;-15
2022/09/13 12:21:22;;;;;;;3.42;2.10;;;38.50;32.80;;;;;;5108076;28;20036;-15
2022/09/13 12:24:15;;;;;;;5.65;2.83;;;39.00;32.00;;;;;;5113489;28;20023;-15
2022/09/13 12:26:45;;;;;;;2.85;2.33;;;38.90;30.40;;;;;;5114113;28;20054;-15
2022/09/13 12:29:20;;;;;;;3.83;2.25;;;38.20;32.00;;;;;;5113469;28;20051;-14
2022/09/13 12:31:46;;;;;;;5.63;3.08;;;37.90;32.50;;;;;;5114241;28;20023;-14
2022/09/13 12:34:41;;;;;;;5.10;2.95;;;37.90;33.10;;;;;;5113562;28;20375;-14
2022/09/13 12:37:39;;;;;;;6.15;3.90;;;37.70;33.00;;;;;;5109346;28;20055;-14
2022/09/13 12:40:34;;;;;;;4.75;3.00;;;37.40;32.10;;;;;;5109236;28;20059;-15
2022/09/13 12:43:27;;;;;;;5.32;3.53;;;36.90;33.40;;;;;;5113273;28;20111;-15
2022/09/13 12:46:11;;;;;;;4.22;2.75;;;36.70;34.00;;;;;;5113768;28;20024;-15
2022/09/13 12:48:40;;;;;;;5.72;3.78;;;36.30;34.70;;;;;;5113803;28;20026;-15
2022/09/13 12:51:27;;;;;;;3.67;2.65;;;36.00;33.90;;;;;;5113171;28;20028;-14
2022/09/13 12:53:56;;;;;;;4.55;2.78;;;35.70;35.30;;;;;;5111984;28;20035;-15
2022/09/13 12:56:27;;;;;;;4.07;2.60;;;35.70;35.00;;;;;;5113616;28;20055;-14
2022/09/13 12:59:34;;;;;;;2.97;2.35;;;36.20;34.10;;;;;;5111883;28;20123;-15
2022/09/13 13:02:21;;;;;;;4.13;2.17;;;36.90;32.80;;;;;;5113296;28;20077;-14
2022/09/13 13:04:54;;;;;;;3.97;2.30;;;37.20;33.00;;;;;;5113142;28;20024;-14
2022/09/13 13:07:23;;;;;;;3.70;2.42;;;37.70;32.80;;;;;;5113314;28;20111;-14
2022/09/13 13:09:52;;;;;;;4.30;2.65;;;38.00;32.70;;;;;;5113142;28;20028;-15
2022/09/13 13:12:24;;;;;;;2.42;1.95;;;38.40;32.40;;;;;;5113112;28;20044;-14
2022/09/13 13:14:52;;;;;;;6.05;2.92;;;38.60;32.20;;;;;;5113070;28;20080;-14
2022/09/13 13:17:36;;;;;;;2.70;2.22;;;38.70;32.00;;;;;;5113814;28;20036;-15
2022/09/13 13:20:40;;;;;;;3.55;2.35;;;38.60;32.20;;;;;;5113123;28;20031;-15